Hauptseite
METAR-TAF:

METAR-TAF

Flughäfen :

Flughafen Mendoza

Mendoza, Argentinien

Breite: 32-50S, Länge: 068-47W, Höhe: 705 m

Beobachtung

Neuester Wetterbericht von vor 42 Minuten, um 22:00 UTC
Wind 8 kt aus Nord
Temperatur 13°C
Luftfeuchtigkeit 35%
Luftdruck 1024 hPa
Sichtweite 10 km oder mehr
keine Wolken unter 1500 m und keine Kumulonimbus oder Gewitterwolken

METAR: SAME 202200Z 36008KT CAVOK 13/M02 Q1024

Zeit: 19:42 (22:42 UTC)

Prognose

Neuester Wetterbericht von vor 5 Stunden und 42 Minuten, um 17:00 UTC
Gültige Prognose vom 20 um 18 UTC bis 21 um 18 UTC
Wind 10 kt aus Nord
Sichtweite 10 km oder mehr
keine Wolken unter 1500 m und keine Kumulonimbus oder Gewitterwolken

TAF: SAME 201700Z 2018/2118 36010KT CAVOK TX15/2020Z TN01/2110Z

Wetterbeobachtungen und Prognosen von mehr als 4000 Flughäfen (METAR und TAF Bericht).

Die verfügbaren Stationen werden durch gelbe und rote Markierungen auf der Karte dargestellt.

Führen Sie die Maus auf sie, um den Namen der Station zu sehen.

Darauf klicken, um die Beobachtung von Wetterbeobachtungen und Prognosen zu sehen.

Um die Karte zu ändern : klicken Sie auf den grünen Tasten mit einem schwarzen Kreuz Zum Vergrößern, auf den grünen Button mit einem Gedankenstrich zu verkleinern, oder auf die grünen Pfeile für benachbarte Karten.


METAR-TAF: